sensor_id;sensor_type;location;lat;lon;timestamp;P1;durP1;ratioP1;P2;durP2;ratioP2
33459;SDS011;19795;53.160;6.612;2023-02-28T05:28:07;15.20;;;8.82;;
33459;SDS011;19795;53.160;6.612;2023-02-28T05:30:33;18.90;;;9.90;;
33459;SDS011;19795;53.160;6.612;2023-02-28T05:35:34;18.30;;;9.82;;
33459;SDS011;19795;53.160;6.612;2023-02-28T05:38:04;16.20;;;10.02;;
33459;SDS011;19795;53.160;6.612;2023-02-28T05:40:29;17.55;;;10.00;;
33459;SDS011;19795;53.160;6.612;2023-02-28T05:42:55;15.95;;;9.93;;
33459;SDS011;19795;53.160;6.612;2023-02-28T05:45:21;20.02;;;10.82;;
33459;SDS011;19795;53.160;6.612;2023-02-28T05:47:46;19.80;;;10.18;;
33459;SDS011;19795;53.160;6.612;2023-02-28T05:50:12;20.08;;;10.20;;
33459;SDS011;19795;53.160;6.612;2023-02-28T05:52:37;20.75;;;10.63;;
33459;SDS011;19795;53.160;6.612;2023-02-28T05:55:03;16.73;;;9.73;;
33459;SDS011;19795;53.160;6.612;2023-02-28T05:57:29;18.70;;;10.05;;
33459;SDS011;19795;53.160;6.612;2023-02-28T05:59:57;19.65;;;10.27;;
33459;SDS011;19795;53.160;6.612;2023-02-28T06:02:23;21.98;;;11.25;;
33459;SDS011;19795;53.160;6.612;2023-02-28T06:04:48;21.05;;;10.95;;
33459;SDS011;19795;53.160;6.612;2023-02-28T06:07:14;20.30;;;11.85;;
33459;SDS011;19795;53.160;6.612;2023-02-28T06:09:41;24.38;;;12.98;;
33459;SDS011;19795;53.160;6.612;2023-02-28T06:12:06;18.02;;;11.90;;
33459;SDS011;19795;53.160;6.612;2023-02-28T06:14:34;21.65;;;12.63;;
33459;SDS011;19795;53.160;6.612;2023-02-28T06:17:01;21.48;;;12.77;;
33459;SDS011;19795;53.160;6.612;2023-02-28T06:19:27;23.80;;;13.10;;
33459;SDS011;19795;53.160;6.612;2023-02-28T06:21:55;24.60;;;13.43;;
33459;SDS011;19795;53.160;6.612;2023-02-28T06:24:22;22.17;;;12.82;;
33459;SDS011;19795;53.160;6.612;2023-02-28T06:26:49;24.08;;;12.52;;
33459;SDS011;19795;53.160;6.612;2023-02-28T06:29:15;23.35;;;13.23;;
33459;SDS011;19795;53.160;6.612;2023-02-28T06:31:44;22.52;;;12.45;;
33459;SDS011;19795;53.160;6.612;2023-02-28T06:34:11;23.85;;;12.13;;
33459;SDS011;19795;53.160;6.612;2023-02-28T06:36:38;19.27;;;12.20;;
33459;SDS011;19795;53.160;6.612;2023-02-28T06:39:04;25.10;;;13.15;;
33459;SDS011;19795;53.160;6.612;2023-02-28T06:41:30;24.35;;;12.52;;
33459;SDS011;19795;53.160;6.612;2023-02-28T06:43:56;23.38;;;13.35;;
33459;SDS011;19795;53.160;6.612;2023-02-28T06:46:22;22.27;;;13.07;;
33459;SDS011;19795;53.160;6.612;2023-02-28T06:48:48;23.83;;;12.85;;
33459;SDS011;19795;53.160;6.612;2023-02-28T06:51:15;22.73;;;14.00;;
33459;SDS011;19795;53.160;6.612;2023-02-28T06:53:43;24.40;;;13.82;;
33459;SDS011;19795;53.160;6.612;2023-02-28T06:56:09;27.02;;;14.15;;
33459;SDS011;19795;53.160;6.612;2023-02-28T06:58:36;28.60;;;14.05;;
33459;SDS011;19795;53.160;6.612;2023-02-28T07:01:03;24.40;;;13.95;;
33459;SDS011;19795;53.160;6.612;2023-02-28T07:03:29;24.30;;;14.43;;
33459;SDS011;19795;53.160;6.612;2023-02-28T07:05:56;27.88;;;13.52;;
33459;SDS011;19795;53.160;6.612;2023-02-28T07:08:23;27.58;;;14.80;;
33459;SDS011;19795;53.160;6.612;2023-02-28T07:10:53;25.55;;;14.60;;
33459;SDS011;19795;53.160;6.612;2023-02-28T07:13:19;20.55;;;13.45;;
33459;SDS011;19795;53.160;6.612;2023-02-28T07:16:09;25.25;;;13.80;;
33459;SDS011;19795;53.160;6.612;2023-02-28T07:18:35;24.30;;;13.68;;
33459;SDS011;19795;53.160;6.612;2023-02-28T07:21:02;21.70;;;13.30;;
33459;SDS011;19795;53.160;6.612;2023-02-28T07:23:29;23.75;;;14.07;;
33459;SDS011;19795;53.160;6.612;2023-02-28T07:25:55;25.13;;;13.65;;
33459;SDS011;19795;53.160;6.612;2023-02-28T07:28:21;20.20;;;12.73;;
33459;SDS011;19795;53.160;6.612;2023-02-28T07:30:46;22.33;;;13.65;;
33459;SDS011;19795;53.160;6.612;2023-02-28T07:33:13;27.48;;;13.35;;
33459;SDS011;19795;53.160;6.612;2023-02-28T07:35:39;22.60;;;12.85;;
33459;SDS011;19795;53.160;6.612;2023-02-28T07:38:05;21.05;;;13.13;;
33459;SDS011;19795;53.160;6.612;2023-02-28T07:40:32;20.42;;;12.65;;
33459;SDS011;19795;53.160;6.612;2023-02-28T07:42:59;23.42;;;13.13;;
33459;SDS011;19795;53.160;6.612;2023-02-28T07:45:26;25.67;;;13.10;;
33459;SDS011;19795;53.160;6.612;2023-02-28T07:47:53;26.30;;;13.93;;
33459;SDS011;19795;53.160;6.612;2023-02-28T07:50:20;25.02;;;13.25;;
33459;SDS011;19795;53.160;6.612;2023-02-28T07:52:46;23.88;;;13.27;;
33459;SDS011;19795;53.160;6.612;2023-02-28T07:55:12;23.05;;;13.85;;
33459;SDS011;19795;53.160;6.612;2023-02-28T07:57:38;24.65;;;13.57;;
33459;SDS011;19795;53.160;6.612;2023-02-28T08:00:06;24.20;;;12.80;;
33459;SDS011;19795;53.160;6.612;2023-02-28T08:02:34;24.38;;;13.15;;
33459;SDS011;19795;53.160;6.612;2023-02-28T08:05:00;25.20;;;13.43;;
33459;SDS011;19795;53.160;6.612;2023-02-28T08:07:26;21.48;;;12.70;;
33459;SDS011;19795;53.160;6.612;2023-02-28T08:09:52;23.25;;;12.85;;
33459;SDS011;19795;53.160;6.612;2023-02-28T08:12:17;20.08;;;12.45;;
33459;SDS011;19795;53.160;6.612;2023-02-28T08:14:43;19.55;;;12.05;;
33459;SDS011;19795;53.160;6.612;2023-02-28T08:17:09;22.50;;;13.15;;
33459;SDS011;19795;53.160;6.612;2023-02-28T08:19:35;19.45;;;13.18;;
33459;SDS011;19795;53.160;6.612;2023-02-28T08:22:01;22.35;;;12.88;;
33459;SDS011;19795;53.160;6.612;2023-02-28T08:24:26;20.33;;;12.60;;
33459;SDS011;19795;53.160;6.612;2023-02-28T08:26:52;18.85;;;11.65;;
33459;SDS011;19795;53.160;6.612;2023-02-28T08:29:18;21.35;;;11.93;;
33459;SDS011;19795;53.160;6.612;2023-02-28T08:31:44;22.00;;;11.98;;
33459;SDS011;19795;53.160;6.612;2023-02-28T08:34:10;17.95;;;10.98;;
33459;SDS011;19795;53.160;6.612;2023-02-28T08:36:38;19.85;;;13.13;;
33459;SDS011;19795;53.160;6.612;2023-02-28T08:39:05;21.38;;;12.35;;
33459;SDS011;19795;53.160;6.612;2023-02-28T08:41:31;17.25;;;11.55;;
33459;SDS011;19795;53.160;6.612;2023-02-28T08:43:57;20.85;;;11.40;;
33459;SDS011;19795;53.160;6.612;2023-02-28T08:46:23;21.40;;;12.18;;
33459;SDS011;19795;53.160;6.612;2023-02-28T08:48:55;19.25;;;11.70;;
33459;SDS011;19795;53.160;6.612;2023-02-28T08:51:26;19.98;;;11.48;;
33459;SDS011;19795;53.160;6.612;2023-02-28T08:53:53;17.30;;;11.32;;
33459;SDS011;19795;53.160;6.612;2023-02-28T08:56:23;17.80;;;11.13;;
33459;SDS011;19795;53.160;6.612;2023-02-28T08:58:49;21.23;;;12.40;;
33459;SDS011;19795;53.160;6.612;2023-02-28T09:01:16;22.02;;;11.27;;
33459;SDS011;19795;53.160;6.612;2023-02-28T09:04:01;18.45;;;11.18;;
33459;SDS011;19795;53.160;6.612;2023-02-28T09:06:27;19.35;;;10.82;;
33459;SDS011;19795;53.160;6.612;2023-02-28T09:08:55;17.88;;;11.48;;
33459;SDS011;19795;53.160;6.612;2023-02-28T09:11:23;18.38;;;11.02;;
33459;SDS011;19795;53.160;6.612;2023-02-28T09:13:49;15.65;;;9.88;;
33459;SDS011;19795;53.160;6.612;2023-02-28T09:16:15;17.25;;;10.23;;
33459;SDS011;19795;53.160;6.612;2023-02-28T09:18:41;16.83;;;9.98;;
33459;SDS011;19795;53.160;6.612;2023-02-28T09:21:08;14.90;;;9.77;;
33459;SDS011;19795;53.160;6.612;2023-02-28T09:23:38;15.32;;;9.15;;
33459;SDS011;19795;53.160;6.612;2023-02-28T09:26:04;15.77;;;8.93;;
33459;SDS011;19795;53.160;6.612;2023-02-28T09:28:30;14.50;;;9.32;;
33459;SDS011;19795;53.160;6.612;2023-02-28T09:30:56;15.63;;;9.70;;
33459;SDS011;19795;53.160;6.612;2023-02-28T09:33:23;15.43;;;8.73;;
33459;SDS011;19795;53.160;6.612;2023-02-28T09:35:50;14.95;;;9.25;;
33459;SDS011;19795;53.160;6.612;2023-02-28T09:38:22;13.18;;;8.57;;
33459;SDS011;19795;53.160;6.612;2023-02-28T09:40:49;12.15;;;8.40;;
33459;SDS011;19795;53.160;6.612;2023-02-28T09:43:17;15.90;;;8.65;;
33459;SDS011;19795;53.160;6.612;2023-02-28T09:45:58;15.13;;;8.68;;
33459;SDS011;19795;53.160;6.612;2023-02-28T09:48:35;10.68;;;7.35;;
33459;SDS011;19795;53.160;6.612;2023-02-28T09:54:01;14.35;;;8.10;;
33459;SDS011;19795;53.160;6.612;2023-02-28T09:56:29;14.10;;;8.20;;
33459;SDS011;19795;53.160;6.612;2023-02-28T10:04:53;14.57;;;8.40;;
33459;SDS011;19795;53.160;6.612;2023-02-28T10:13:16;15.02;;;6.97;;
33459;SDS011;19795;53.160;6.612;2023-02-28T10:15:47;11.20;;;6.65;;
33459;SDS011;19795;53.160;6.612;2023-02-28T10:18:20;12.43;;;7.60;;
33459;SDS011;19795;53.160;6.612;2023-02-28T10:20:50;10.93;;;6.60;;
33459;SDS011;19795;53.160;6.612;2023-02-28T10:23:50;10.70;;;6.53;;
33459;SDS011;19795;53.160;6.612;2023-02-28T10:26:13;8.27;;;5.70;;
33459;SDS011;19795;53.160;6.612;2023-02-28T10:28:43;10.00;;;6.20;;
33459;SDS011;19795;53.160;6.612;2023-02-28T10:31:14;8.38;;;5.63;;
33459;SDS011;19795;53.160;6.612;2023-02-28T10:33:44;10.45;;;5.97;;
33459;SDS011;19795;53.160;6.612;2023-02-28T10:36:12;10.63;;;6.20;;
33459;SDS011;19795;53.160;6.612;2023-02-28T10:38:41;8.15;;;4.88;;
33459;SDS011;19795;53.160;6.612;2023-02-28T10:41:15;7.65;;;4.80;;
33459;SDS011;19795;53.160;6.612;2023-02-28T10:43:51;8.40;;;4.78;;
33459;SDS011;19795;53.160;6.612;2023-02-28T10:46:18;7.95;;;4.65;;
33459;SDS011;19795;53.160;6.612;2023-02-28T10:48:59;8.68;;;3.97;;
33459;SDS011;19795;53.160;6.612;2023-02-28T10:51:34;7.20;;;4.10;;
33459;SDS011;19795;53.160;6.612;2023-02-28T10:54:04;7.55;;;3.53;;
33459;SDS011;19795;53.160;6.612;2023-02-28T10:56:31;8.10;;;4.00;;
33459;SDS011;19795;53.160;6.612;2023-02-28T11:01:51;6.85;;;4.10;;
33459;SDS011;19795;53.160;6.612;2023-02-28T11:09:49;7.15;;;4.40;;
33459;SDS011;19795;53.160;6.612;2023-02-28T11:12:20;7.60;;;4.70;;
33459;SDS011;19795;53.160;6.612;2023-02-28T11:15:20;7.72;;;4.15;;
33459;SDS011;19795;53.160;6.612;2023-02-28T11:17:57;7.10;;;3.95;;
33459;SDS011;19795;53.160;6.612;2023-02-28T11:20:23;6.88;;;3.88;;
33459;SDS011;19795;53.160;6.612;2023-02-28T11:22:51;6.65;;;3.80;;
33459;SDS011;19795;53.160;6.612;2023-02-28T11:25:30;8.50;;;3.55;;
33459;SDS011;19795;53.160;6.612;2023-02-28T11:28:02;8.90;;;4.10;;
33459;SDS011;19795;53.160;6.612;2023-02-28T11:30:32;7.22;;;3.50;;
33459;SDS011;19795;53.160;6.612;2023-02-28T11:33:18;6.60;;;3.63;;
33459;SDS011;19795;53.160;6.612;2023-02-28T11:36:10;6.65;;;3.72;;
33459;SDS011;19795;53.160;6.612;2023-02-28T11:38:41;5.85;;;3.83;;
33459;SDS011;19795;53.160;6.612;2023-02-28T11:43:39;5.32;;;3.22;;
33459;SDS011;19795;53.160;6.612;2023-02-28T11:46:35;6.93;;;3.40;;
33459;SDS011;19795;53.160;6.612;2023-02-28T11:51:58;6.82;;;3.97;;
33459;SDS011;19795;53.160;6.612;2023-02-28T11:54:30;6.45;;;3.47;;
33459;SDS011;19795;53.160;6.612;2023-02-28T11:59:56;6.80;;;4.03;;
33459;SDS011;19795;53.160;6.612;2023-02-28T12:28:10;7.53;;;4.53;;
33459;SDS011;19795;53.160;6.612;2023-02-28T12:30:41;7.57;;;4.63;;
33459;SDS011;19795;53.160;6.612;2023-02-28T12:33:22;9.35;;;4.90;;
33459;SDS011;19795;53.160;6.612;2023-02-28T12:35:51;10.35;;;4.78;;
33459;SDS011;19795;53.160;6.612;2023-02-28T12:38:25;7.03;;;4.50;;
33459;SDS011;19795;53.160;6.612;2023-02-28T12:41:03;9.10;;;5.03;;
33459;SDS011;19795;53.160;6.612;2023-02-28T12:43:39;8.30;;;5.05;;
33459;SDS011;19795;53.160;6.612;2023-02-28T12:46:13;10.18;;;4.85;;
33459;SDS011;19795;53.160;6.612;2023-02-28T12:48:47;10.30;;;4.70;;
33459;SDS011;19795;53.160;6.612;2023-02-28T12:51:17;9.73;;;4.95;;
33459;SDS011;19795;53.160;6.612;2023-02-28T12:53:53;9.90;;;5.28;;
33459;SDS011;19795;53.160;6.612;2023-02-28T12:56:33;9.88;;;5.07;;
33459;SDS011;19795;53.160;6.612;2023-02-28T12:59:21;10.77;;;4.75;;
33459;SDS011;19795;53.160;6.612;2023-02-28T13:07:31;9.85;;;5.18;;
33459;SDS011;19795;53.160;6.612;2023-02-28T13:10:04;10.30;;;4.90;;
33459;SDS011;19795;53.160;6.612;2023-02-28T13:12:32;11.65;;;5.75;;
33459;SDS011;19795;53.160;6.612;2023-02-28T13:15:16;8.43;;;5.13;;
33459;SDS011;19795;53.160;6.612;2023-02-28T13:17:49;10.90;;;4.78;;
33459;SDS011;19795;53.160;6.612;2023-02-28T13:20:21;8.13;;;5.38;;
33459;SDS011;19795;53.160;6.612;2023-02-28T13:22:55;8.90;;;5.15;;
33459;SDS011;19795;53.160;6.612;2023-02-28T13:28:09;7.53;;;4.57;;
33459;SDS011;19795;53.160;6.612;2023-02-28T13:33:33;9.48;;;5.20;;
33459;SDS011;19795;53.160;6.612;2023-02-28T13:38:45;10.05;;;5.20;;
33459;SDS011;19795;53.160;6.612;2023-02-28T13:49:32;8.68;;;4.68;;
33459;SDS011;19795;53.160;6.612;2023-02-28T14:05:34;12.35;;;5.68;;
33459;SDS011;19795;53.160;6.612;2023-02-28T14:08:06;9.00;;;5.72;;
33459;SDS011;19795;53.160;6.612;2023-02-28T14:10:43;11.23;;;6.47;;
33459;SDS011;19795;53.160;6.612;2023-02-28T14:13:36;9.18;;;5.30;;
33459;SDS011;19795;53.160;6.612;2023-02-28T14:16:09;11.30;;;5.80;;
33459;SDS011;19795;53.160;6.612;2023-02-28T14:18:40;9.80;;;5.63;;
33459;SDS011;19795;53.160;6.612;2023-02-28T14:21:23;9.93;;;6.05;;
33459;SDS011;19795;53.160;6.612;2023-02-28T14:26:44;11.40;;;5.43;;
33459;SDS011;19795;53.160;6.612;2023-02-28T14:35:03;7.38;;;5.13;;
33459;SDS011;19795;53.160;6.612;2023-02-28T14:37:41;9.13;;;5.32;;
33459;SDS011;19795;53.160;6.612;2023-02-28T14:40:12;10.55;;;5.38;;
33459;SDS011;19795;53.160;6.612;2023-02-28T14:42:46;10.73;;;5.38;;
33459;SDS011;19795;53.160;6.612;2023-02-28T14:45:17;12.80;;;5.25;;
33459;SDS011;19795;53.160;6.612;2023-02-28T14:47:47;9.70;;;5.57;;
33459;SDS011;19795;53.160;6.612;2023-02-28T14:50:18;8.98;;;5.00;;
33459;SDS011;19795;53.160;6.612;2023-02-28T14:52:46;11.18;;;5.70;;
33459;SDS011;19795;53.160;6.612;2023-02-28T14:55:17;10.98;;;5.78;;
33459;SDS011;19795;53.160;6.612;2023-02-28T14:57:52;9.65;;;5.45;;
33459;SDS011;19795;53.160;6.612;2023-02-28T15:00:26;7.78;;;5.38;;
33459;SDS011;19795;53.160;6.612;2023-02-28T15:02:54;8.85;;;5.15;;
33459;SDS011;19795;53.160;6.612;2023-02-28T15:10:54;8.65;;;5.28;;
33459;SDS011;19795;53.160;6.612;2023-02-28T15:13:33;9.00;;;5.13;;
33459;SDS011;19795;53.160;6.612;2023-02-28T15:16:04;9.60;;;5.25;;
33459;SDS011;19795;53.160;6.612;2023-02-28T15:18:39;11.40;;;5.63;;
33459;SDS011;19795;53.160;6.612;2023-02-28T15:24:21;8.98;;;6.15;;
33459;SDS011;19795;53.160;6.612;2023-02-28T15:26:59;8.65;;;5.60;;
33459;SDS011;19795;53.160;6.612;2023-02-28T15:29:30;11.43;;;5.60;;
33459;SDS011;19795;53.160;6.612;2023-02-28T15:32:03;12.70;;;6.45;;
33459;SDS011;19795;53.160;6.612;2023-02-28T15:34:43;10.82;;;6.25;;
33459;SDS011;19795;53.160;6.612;2023-02-28T15:42:59;10.90;;;6.22;;
33459;SDS011;19795;53.160;6.612;2023-02-28T15:45:37;11.52;;;5.68;;
33459;SDS011;19795;53.160;6.612;2023-02-28T15:48:29;11.15;;;6.00;;
33459;SDS011;19795;53.160;6.612;2023-02-28T15:51:01;8.18;;;5.25;;
33459;SDS011;19795;53.160;6.612;2023-02-28T15:53:32;10.35;;;5.55;;
33459;SDS011;19795;53.160;6.612;2023-02-28T15:56:03;9.38;;;5.50;;
33459;SDS011;19795;53.160;6.612;2023-02-28T15:58:33;9.95;;;5.85;;
33459;SDS011;19795;53.160;6.612;2023-02-28T16:01:07;9.90;;;5.82;;
33459;SDS011;19795;53.160;6.612;2023-02-28T16:03:57;9.82;;;5.80;;
33459;SDS011;19795;53.160;6.612;2023-02-28T16:09:23;8.75;;;4.97;;
33459;SDS011;19795;53.160;6.612;2023-02-28T16:11:49;9.07;;;5.72;;
33459;SDS011;19795;53.160;6.612;2023-02-28T16:14:21;10.55;;;5.82;;
33459;SDS011;19795;53.160;6.612;2023-02-28T16:16:49;9.68;;;5.40;;
33459;SDS011;19795;53.160;6.612;2023-02-28T16:19:17;8.30;;;5.40;;
33459;SDS011;19795;53.160;6.612;2023-02-28T16:21:44;11.05;;;5.22;;
33459;SDS011;19795;53.160;6.612;2023-02-28T16:24:10;9.40;;;6.00;;
33459;SDS011;19795;53.160;6.612;2023-02-28T16:26:35;11.35;;;5.32;;
33459;SDS011;19795;53.160;6.612;2023-02-28T16:29:04;10.00;;;5.75;;
33459;SDS011;19795;53.160;6.612;2023-02-28T16:31:32;8.77;;;6.43;;
33459;SDS011;19795;53.160;6.612;2023-02-28T16:34:04;12.45;;;6.53;;
33459;SDS011;19795;53.160;6.612;2023-02-28T16:36:30;9.93;;;6.53;;
33459;SDS011;19795;53.160;6.612;2023-02-28T16:38:56;11.95;;;6.80;;
33459;SDS011;19795;53.160;6.612;2023-02-28T16:41:22;11.68;;;6.75;;
33459;SDS011;19795;53.160;6.612;2023-02-28T16:43:51;14.05;;;7.70;;
33459;SDS011;19795;53.160;6.612;2023-02-28T16:46:19;11.10;;;6.95;;
33459;SDS011;19795;53.160;6.612;2023-02-28T16:48:47;11.02;;;6.82;;
33459;SDS011;19795;53.160;6.612;2023-02-28T16:51:16;11.82;;;7.60;;
33459;SDS011;19795;53.160;6.612;2023-02-28T16:53:43;15.00;;;7.80;;
33459;SDS011;19795;53.160;6.612;2023-02-28T16:56:14;13.45;;;7.18;;
33459;SDS011;19795;53.160;6.612;2023-02-28T16:58:45;12.52;;;7.57;;
33459;SDS011;19795;53.160;6.612;2023-02-28T17:01:11;12.80;;;7.60;;
33459;SDS011;19795;53.160;6.612;2023-02-28T17:03:37;16.30;;;9.18;;
33459;SDS011;19795;53.160;6.612;2023-02-28T17:06:05;11.93;;;8.25;;
33459;SDS011;19795;53.160;6.612;2023-02-28T17:08:37;13.23;;;8.30;;
33459;SDS011;19795;53.160;6.612;2023-02-28T17:11:03;15.73;;;9.30;;
33459;SDS011;19795;53.160;6.612;2023-02-28T17:13:29;15.88;;;9.35;;
33459;SDS011;19795;53.160;6.612;2023-02-28T17:15:55;15.02;;;9.05;;
33459;SDS011;19795;53.160;6.612;2023-02-28T17:18:20;16.20;;;9.45;;
33459;SDS011;19795;53.160;6.612;2023-02-28T17:20:47;15.27;;;9.82;;
33459;SDS011;19795;53.160;6.612;2023-02-28T17:23:14;19.08;;;9.98;;
33459;SDS011;19795;53.160;6.612;2023-02-28T17:25:40;15.75;;;10.48;;
33459;SDS011;19795;53.160;6.612;2023-02-28T17:28:18;17.45;;;10.38;;
33459;SDS011;19795;53.160;6.612;2023-02-28T17:30:44;18.38;;;10.52;;
33459;SDS011;19795;53.160;6.612;2023-02-28T17:33:12;24.40;;;11.05;;
33459;SDS011;19795;53.160;6.612;2023-02-28T17:35:38;18.77;;;10.48;;
33459;SDS011;19795;53.160;6.612;2023-02-28T17:38:03;16.30;;;10.48;;
33459;SDS011;19795;53.160;6.612;2023-02-28T17:40:29;18.50;;;10.75;;
33459;SDS011;19795;53.160;6.612;2023-02-28T17:42:55;16.48;;;10.70;;
33459;SDS011;19795;53.160;6.612;2023-02-28T17:45:21;19.40;;;10.77;;
33459;SDS011;19795;53.160;6.612;2023-02-28T17:47:48;17.35;;;11.05;;
33459;SDS011;19795;53.160;6.612;2023-02-28T17:50:20;20.23;;;11.30;;
33459;SDS011;19795;53.160;6.612;2023-02-28T17:52:47;16.88;;;11.55;;
33459;SDS011;19795;53.160;6.612;2023-02-28T17:55:13;19.05;;;12.18;;
33459;SDS011;19795;53.160;6.612;2023-02-28T17:57:39;21.20;;;12.45;;
33459;SDS011;19795;53.160;6.612;2023-02-28T18:00:06;18.20;;;12.45;;
33459;SDS011;19795;53.160;6.612;2023-02-28T18:02:33;22.08;;;13.35;;
33459;SDS011;19795;53.160;6.612;2023-02-28T18:04:59;28.25;;;15.13;;
33459;SDS011;19795;53.160;6.612;2023-02-28T18:07:24;24.23;;;13.85;;
33459;SDS011;19795;53.160;6.612;2023-02-28T18:09:50;22.48;;;13.23;;
33459;SDS011;19795;53.160;6.612;2023-02-28T18:12:16;25.83;;;13.45;;
33459;SDS011;19795;53.160;6.612;2023-02-28T18:14:42;26.15;;;14.55;;
33459;SDS011;19795;53.160;6.612;2023-02-28T18:17:09;23.13;;;14.23;;
33459;SDS011;19795;53.160;6.612;2023-02-28T18:19:37;23.58;;;14.50;;
33459;SDS011;19795;53.160;6.612;2023-02-28T18:22:03;32.22;;;18.70;;
33459;SDS011;19795;53.160;6.612;2023-02-28T18:24:31;29.83;;;16.45;;
33459;SDS011;19795;53.160;6.612;2023-02-28T18:26:57;30.95;;;16.92;;
33459;SDS011;19795;53.160;6.612;2023-02-28T18:29:24;30.02;;;18.13;;
33459;SDS011;19795;53.160;6.612;2023-02-28T18:31:52;29.67;;;17.13;;
33459;SDS011;19795;53.160;6.612;2023-02-28T18:34:19;29.23;;;17.95;;
33459;SDS011;19795;53.160;6.612;2023-02-28T18:36:45;29.35;;;17.42;;
33459;SDS011;19795;53.160;6.612;2023-02-28T18:39:12;29.40;;;17.88;;
33459;SDS011;19795;53.160;6.612;2023-02-28T18:41:39;32.83;;;17.75;;
33459;SDS011;19795;53.160;6.612;2023-02-28T18:44:05;28.27;;;17.52;;
33459;SDS011;19795;53.160;6.612;2023-02-28T18:46:31;25.83;;;16.27;;
33459;SDS011;19795;53.160;6.612;2023-02-28T18:48:56;25.25;;;16.25;;
33459;SDS011;19795;53.160;6.612;2023-02-28T18:51:24;28.65;;;16.75;;
33459;SDS011;19795;53.160;6.612;2023-02-28T18:53:51;24.50;;;16.52;;
33459;SDS011;19795;53.160;6.612;2023-02-28T18:56:18;29.77;;;17.27;;
33459;SDS011;19795;53.160;6.612;2023-02-28T18:58:45;27.45;;;16.77;;
33459;SDS011;19795;53.160;6.612;2023-02-28T19:03:43;30.48;;;16.42;;
33459;SDS011;19795;53.160;6.612;2023-02-28T19:06:09;27.83;;;16.08;;
33459;SDS011;19795;53.160;6.612;2023-02-28T19:08:35;31.65;;;16.75;;
33459;SDS011;19795;53.160;6.612;2023-02-28T19:11:08;33.10;;;17.50;;
33459;SDS011;19795;53.160;6.612;2023-02-28T19:13:35;29.67;;;17.40;;
33459;SDS011;19795;53.160;6.612;2023-02-28T19:16:02;30.45;;;17.00;;
33459;SDS011;19795;53.160;6.612;2023-02-28T19:18:29;26.50;;;17.02;;
33459;SDS011;19795;53.160;6.612;2023-02-28T19:20:55;28.35;;;17.77;;
33459;SDS011;19795;53.160;6.612;2023-02-28T19:23:21;34.28;;;18.55;;
33459;SDS011;19795;53.160;6.612;2023-02-28T19:25:46;49.03;;;26.85;;
33459;SDS011;19795;53.160;6.612;2023-02-28T19:28:12;36.22;;;20.33;;
33459;SDS011;19795;53.160;6.612;2023-02-28T19:30:38;36.40;;;21.10;;
33459;SDS011;19795;53.160;6.612;2023-02-28T19:33:04;35.88;;;21.17;;
33459;SDS011;19795;53.160;6.612;2023-02-28T19:35:30;44.50;;;22.70;;
33459;SDS011;19795;53.160;6.612;2023-02-28T19:37:55;35.40;;;19.38;;
33459;SDS011;19795;53.160;6.612;2023-02-28T19:40:21;34.65;;;20.02;;
33459;SDS011;19795;53.160;6.612;2023-02-28T19:42:47;32.63;;;20.13;;
33459;SDS011;19795;53.160;6.612;2023-02-28T19:45:14;38.38;;;19.15;;
33459;SDS011;19795;53.160;6.612;2023-02-28T19:47:40;33.63;;;18.75;;
33459;SDS011;19795;53.160;6.612;2023-02-28T19:50:06;28.95;;;17.52;;
33459;SDS011;19795;53.160;6.612;2023-02-28T19:52:33;33.28;;;17.27;;
33459;SDS011;19795;53.160;6.612;2023-02-28T19:54:58;34.38;;;17.95;;
33459;SDS011;19795;53.160;6.612;2023-02-28T19:57:24;32.15;;;17.85;;
33459;SDS011;19795;53.160;6.612;2023-02-28T19:59:50;29.73;;;16.80;;
33459;SDS011;19795;53.160;6.612;2023-02-28T20:02:17;33.97;;;18.13;;
33459;SDS011;19795;53.160;6.612;2023-02-28T20:04:47;33.25;;;18.25;;
33459;SDS011;19795;53.160;6.612;2023-02-28T20:07:14;29.88;;;17.23;;
33459;SDS011;19795;53.160;6.612;2023-02-28T20:09:41;34.67;;;17.40;;
33459;SDS011;19795;53.160;6.612;2023-02-28T20:12:09;30.83;;;17.83;;
